Balmoral, Louisiana
Current Conditions -  °F | °C
As of 10:53 AM on Monday 22 Dec 2014 (Local Time) from KTVR Reporting Station
Haze Haze  
Wind Chill: 59°   Ceiling: 700
Heat Index: 59°   Visibility: 6mi
Dew Point: 56°   Wind: 7mph
Humidity: 90%   Direction: 170°S
Pressure: 29.78"   Gusts: NA
Location:  32.1015°N, 91.2929°W
Report Text: KTVR 221653Z AUTO 17006KT 6SM BR OVC007 15/13 A2978 RMK AO2 SLP091 T01500133
Loading
Personal Weather Stations






























Interactive Weather Map New forecast layout! Learn more

10-Day Weather Forecast

Advertisements
Track Severe Weather on mobile